Letzte Messung
Zeitpunkt Temperatur Luftfeuchte Luftdruck
2021-06-12 16:09:27 20 ℃ 87.86 % 1016.43 hPa

Zeitpunkt Temperatur Luftfeuchte Luftdruck
2021-06-12 16:09:27 20 ℃ 87.86 % 1016.43 hPa
2021-06-12 15:59:27 19.94 ℃ 89.15 % 1016.35 hPa
2021-06-12 15:49:27 19.91 ℃ 90.27 % 1016.29 hPa
2021-06-12 15:39:27 19.97 ℃ 90.01 % 1016.18 hPa
2021-06-12 15:29:27 20.08 ℃ 88.66 % 1016.13 hPa
2021-06-12 15:19:27 20.51 ℃ 86.95 % 1016.06 hPa
2021-06-12 15:09:27 20.3 ℃ 88.52 % 1015.94 hPa
2021-06-12 14:59:27 20.37 ℃ 93.14 % 1015.88 hPa
2021-06-12 14:49:27 19.96 ℃ 98.57 % 1015.91 hPa
2021-06-12 14:39:27 19.55 ℃ 98.99 % 1015.91 hPa
2021-06-12 14:29:27 19.54 ℃ 97.97 % 1015.8 hPa
2021-06-12 14:19:27 19.4 ℃ 95.94 % 1015.72 hPa
2021-06-12 14:09:27 20.18 ℃ 91.88 % 1015.56 hPa
2021-06-12 13:59:27 21.28 ℃ 83.77 % 1015.45 hPa
2021-06-12 13:49:27 21.42 ℃ 80.63 % 1015.47 hPa
2021-06-12 13:39:27 21.18 ℃ 76.42 % 1015.48 hPa
2021-06-12 13:29:27 21.13 ℃ 75.49 % 1015.51 hPa
2021-06-12 13:19:27 21.22 ℃ 77.27 % 1015.53 hPa
2021-06-12 13:09:27 20.85 ℃ 76.69 % 1015.51 hPa
2021-06-12 12:59:27 21.05 ℃ 75.66 % 1015.47 hPa
2021-06-12 12:49:27 20.81 ℃ 77.22 % 1015.42 hPa
2021-06-12 12:39:27 20.88 ℃ 81.81 % 1015.36 hPa
2021-06-12 12:29:27 20.62 ℃ 84.03 % 1015.36 hPa
2021-06-12 12:19:27 20.35 ℃ 83.13 % 1015.34 hPa
2021-06-12 12:09:27 20.16 ℃ 82.79 % 1015.36 hPa
2021-06-12 11:59:27 19.87 ℃ 82.4 % 1015.3 hPa
2021-06-12 11:49:27 19.92 ℃ 83.49 % 1015.18 hPa
2021-06-12 11:39:27 20.1 ℃ 80.72 % 1015.13 hPa
2021-06-12 11:29:27 20.66 ℃ 77.92 % 1014.97 hPa
2021-06-12 11:19:27 21 ℃ 74.75 % 1014.9 hPa
2021-06-12 11:09:27 21.14 ℃ 75.3 % 1014.96 hPa
2021-06-12 10:59:27 20.96 ℃ 78.03 % 1014.91 hPa
2021-06-12 10:49:27 20.92 ℃ 80.66 % 1014.94 hPa
2021-06-12 10:39:27 20.43 ℃ 86.06 % 1014.98 hPa
2021-06-12 10:29:27 20.59 ℃ 91.64 % 1014.99 hPa
2021-06-12 10:19:27 20.28 ℃ 95.18 % 1015.04 hPa
Durchschnitt 20.46 ℃ 84.97 % 1015.52 hPa

weatherino

Wetterdaten aus der Harmsstraße 54 in 24114 Kiel (4. OG, außen), die per BME280 und einem ESP-32 erhoben werden.

Unter https://wetter.janbpunkt.de/weather.xml steht eine entsprechende XML bereit, die das jüngste Messergebnis enthält.

Da der weatherino ab und zu ausfällt/gewartet wird, können Messpunkte fehlen.

Mehr zu dem Projekt findet man hier.

SSL, keine Cookies, keine IP-Adress-Speicherung, keine Verarbeitung von personenbezogenen Daten

Impressum

Extremwerte

Nachfolgend die Extremwerte seit Aufzeichnung.

BezeichnungWertZeitpunkt
Niedrigste Temperatur-6.4 ℃2021-02-13 07:00:53
Höchste Temperatur29.88 ℃2020-08-16 14:01:47
Niedrigster Luftdruck979.11 hPa2021-01-22 05:21:46
Höchster Luftdruck1074.18 hPa2020-12-24 17:16:12
Niedrigste Luftfeuchtigkeit22.3 %2020-04-13 15:26:13
Höchste Luftfeuchtigkeit100 %2020-06-11 06:39:27